Elizabeth, West Virginia
Current Conditions -  °F | °C
As of 2:53 PM on Saturday 25 Oct 2014 (Local Time) from KPKB Reporting Station
Overcast Overcast  
Wind Chill: 66°   Ceiling: 4000
Heat Index: 66°   Visibility: 10mi
Dew Point: 49°   Wind: 13mph
Humidity: 54%   Direction: 230°SW
Pressure: 29.92"   Gusts: 18mph
Location:  39.06°N, 81.4°W
Report Text: KPKB 251853Z 23011G16KT 10SM SCT033 BKN040 OVC050 19/09 A2992 RMK AO2 SLP131 T01890094
Loading
Personal Weather Stations






























Interactive Weather Map New forecast layout! Learn more

10-Day Weather Forecast

Advertisements
Track Severe Weather on mobile